Time;durP1;ratioP1;P1;durP2;ratioP2;P2;SDS_P1;SDS_P2;PMS_P1;PMS_P2;Temp;Humidity;BMP_temperature;BMP_pressure;BME280_temperature;BME280_humidity;BME280_pressure;Samples;Min_cycle;Max_cycle;Signal;HPM_P1;HPM_P2
2023/02/12 00:00:57;;;;;;;25.57;17.53;;;;;;;4.21;88.30;97421.69;5023391;28;20212;-81
2023/02/12 00:03:22;;;;;;;24.27;16.87;;;;;;;4.18;88.70;97420.09;5028105;28;20201;-81
2023/02/12 00:05:47;;;;;;;28.20;18.67;;;;;;;4.20;88.62;97425.19;5016506;28;20204;-81
2023/02/12 00:08:15;;;;;;;24.23;16.70;;;;;;;4.18;88.86;97427.81;5028893;28;20181;-81
2023/02/12 00:10:41;;;;;;;25.73;17.97;;;;;;;4.17;88.55;97426.16;5022754;28;20278;-81
2023/02/12 00:13:07;;;;;;;23.17;16.20;;;;;;;4.16;88.76;97421.91;5019743;28;20270;-80
2023/02/12 00:15:33;;;;;;;24.83;17.27;;;;;;;4.15;88.87;97419.38;5010349;28;20675;-81
2023/02/12 00:17:59;;;;;;;25.87;16.40;;;;;;;4.14;88.99;97418.53;5021482;28;20257;-81
2023/02/12 00:20:24;;;;;;;24.23;17.20;;;;;;;4.13;88.31;97410.88;5038788;28;20220;-80
2023/02/12 00:22:49;;;;;;;27.83;18.00;;;;;;;4.13;88.76;97411.72;5033582;28;20218;-80
2023/02/12 00:25:15;;;;;;;24.57;17.57;;;;;;;4.12;89.02;97407.47;5009168;28;20179;-80
2023/02/12 00:27:41;;;;;;;25.47;17.37;;;;;;;4.11;89.00;97420.41;5003967;28;20404;-80
2023/02/12 00:30:06;;;;;;;25.50;16.97;;;;;;;4.11;89.28;97420.41;5020424;28;20545;-80
2023/02/12 00:32:32;;;;;;;25.00;16.63;;;;;;;4.11;89.01;97421.25;5033693;28;20206;-79
2023/02/12 00:34:57;;;;;;;24.73;16.40;;;;;;;4.10;88.92;97422.16;5016262;28;20189;-81
2023/02/12 00:37:22;;;;;;;29.43;18.17;;;;;;;4.10;89.38;97426.44;5019426;28;20207;-80
2023/02/12 00:39:47;;;;;;;22.97;17.00;;;;;;;4.10;89.11;97432.44;5004439;28;20193;-79
2023/02/12 00:42:13;;;;;;;29.33;20.60;;;;;;;4.09;89.35;97435.91;5008098;28;20267;-80
2023/02/12 00:44:38;;;;;;;32.13;20.73;;;;;;;4.14;88.42;97428.81;5014597;28;20273;-80
2023/02/12 00:47:04;;;;;;;33.87;22.40;;;;;;;4.14;88.92;97439.09;5021274;28;20182;-79
2023/02/12 00:49:33;;;;;;;36.07;24.30;;;;;;;4.13;89.15;97431.47;5010999;28;20182;-80
2023/02/12 00:52:01;;;;;;;35.23;23.40;;;;;;;4.14;89.01;97439.09;5022122;28;20197;-80
2023/02/12 00:54:27;;;;;;;34.50;24.10;;;;;;;4.20;88.43;97444.00;5016680;28;20605;-79
2023/02/12 00:56:54;;;;;;;36.53;24.20;;;;;;;4.19;88.15;97433.78;5019278;28;20198;-80
2023/02/12 00:59:19;;;;;;;35.07;23.60;;;;;;;4.22;87.92;97441.38;5013505;28;20203;-79
2023/02/12 01:01:45;;;;;;;36.67;24.23;;;;;;;4.22;87.97;97446.50;5000841;28;20195;-80
2023/02/12 01:04:10;;;;;;;33.80;22.90;;;;;;;4.21;87.71;97437.97;5016931;28;20236;-80
2023/02/12 01:06:35;;;;;;;33.40;22.20;;;;;;;4.19;87.71;97442.34;5021368;28;20535;-80
2023/02/12 01:09:01;;;;;;;37.73;23.17;;;;;;;4.19;87.89;97444.06;5002946;28;20558;-79
2023/02/12 01:11:26;;;;;;;32.10;21.83;;;;;;;4.19;87.76;97439.78;5002937;28;20200;-80
2023/02/12 01:13:52;;;;;;;33.50;21.97;;;;;;;4.19;87.79;97441.50;5013154;28;20214;-79
2023/02/12 01:16:20;;;;;;;34.13;23.30;;;;;;;4.19;87.89;97444.91;5026727;28;20231;-81
2023/02/12 01:18:46;;;;;;;35.63;22.40;;;;;;;4.19;87.87;97450.06;5034402;28;20214;-81
2023/02/12 01:21:14;;;;;;;33.97;23.47;;;;;;;4.19;87.79;97446.66;5020118;28;20265;-79
2023/02/12 01:23:40;;;;;;;36.77;24.53;;;;;;;4.19;87.48;97446.66;5009205;28;20585;-79
2023/02/12 01:26:06;;;;;;;37.83;24.70;;;;;;;4.18;87.72;97450.97;5023544;28;20279;-79
2023/02/12 01:28:32;;;;;;;35.37;24.40;;;;;;;4.17;87.57;97449.28;5002300;28;20531;-80
2023/02/12 01:30:57;;;;;;;35.80;23.60;;;;;;;4.17;87.57;97449.28;5004810;28;20702;-80
2023/02/12 01:33:22;;;;;;;38.70;25.63;;;;;;;4.17;87.53;97448.44;5025784;28;20210;-80
2023/02/12 01:35:47;;;;;;;38.83;24.30;;;;;;;4.15;87.25;97440.81;5011041;28;20193;-79
2023/02/12 01:38:13;;;;;;;33.80;23.87;;;;;;;4.16;87.83;97436.50;5033171;28;20225;-80
2023/02/12 01:40:38;;;;;;;40.23;25.77;;;;;;;4.15;87.42;97439.94;5027555;28;20264;-80
2023/02/12 01:43:05;;;;;;;37.00;24.70;;;;;;;4.17;87.77;97449.28;5005244;28;20211;-80
2023/02/12 01:45:45;;;;;;;39.43;25.60;;;;;;;4.18;87.50;97440.66;5016573;28;20217;-80
2023/02/12 01:48:12;;;;;;;41.77;26.60;;;;;;;4.17;87.40;97445.88;5011334;28;20251;-80
2023/02/12 01:50:38;;;;;;;38.53;27.10;;;;;;;4.17;87.07;97446.72;5007856;28;20189;-79
2023/02/12 01:53:03;;;;;;;42.77;29.17;;;;;;;4.16;87.27;97439.06;5019352;28;20215;-80
2023/02/12 01:55:29;;;;;;;38.43;26.43;;;;;;;4.16;87.35;97441.66;5000963;28;20201;-80
2023/02/12 01:57:55;;;;;;;37.03;26.50;;;;;;;4.16;87.40;97441.66;5022748;28;20216;-79
2023/02/12 02:00:22;;;;;;;39.53;26.20;;;;;;;4.14;87.22;97438.28;5022146;28;20193;-79
2023/02/12 02:02:51;;;;;;;36.43;24.37;;;;;;;4.13;87.27;97442.56;5014670;28;20238;-79
2023/02/12 02:05:22;;;;;;;40.60;26.17;;;;;;;4.13;87.56;97434.03;5010448;28;20221;-79
2023/02/12 02:07:47;;;;;;;42.27;26.70;;;;;;;4.09;87.49;97430.75;5011851;28;20178;-80
2023/02/12 02:10:13;;;;;;;38.10;25.73;;;;;;;4.09;87.36;97432.50;5000130;28;20264;-79
2023/02/12 02:15:24;;;;;;;39.63;26.93;;;;;;;4.06;87.14;97425.72;5022452;28;20197;-79
2023/02/12 02:18:09;;;;;;;37.80;24.97;;;;;;;4.09;87.35;97429.94;5009221;28;20202;-79
2023/02/12 02:20:37;;;;;;;38.53;24.10;;;;;;;4.06;87.52;97422.31;5027220;28;20178;-79
2023/02/12 02:23:39;;;;;;;32.07;22.57;;;;;;;4.13;87.21;97422.00;5020938;28;20311;-79
2023/02/12 02:26:20;;;;;;;32.80;22.53;;;;;;;4.08;87.34;97416.22;5019292;28;20268;-80
2023/02/12 02:28:54;;;;;;;29.97;21.57;;;;;;;4.04;87.29;97422.38;5015649;28;20265;-79
2023/02/12 02:31:40;;;;;;;28.97;20.37;;;;;;;4.11;87.26;97417.84;5019273;28;20190;-79
2023/02/12 02:34:28;;;;;;;30.80;19.70;;;;;;;4.05;87.19;97418.06;5002387;28;20206;-79
2023/02/12 02:37:22;;;;;;;28.73;19.77;;;;;;;4.06;87.58;97420.59;5012956;28;20185;-80
2023/02/12 02:39:51;;;;;;;27.93;18.93;;;;;;;4.04;87.61;97416.41;5015930;28;20214;-80
2023/02/12 02:42:26;;;;;;;28.47;19.27;;;;;;;4.02;87.63;97413.91;5024757;28;20202;-80
2023/02/12 02:44:56;;;;;;;27.30;19.90;;;;;;;4.05;87.44;97416.34;5013094;28;20363;-79
2023/02/12 02:47:34;;;;;;;30.20;20.13;;;;;;;4.02;87.35;97413.06;5029479;28;20236;-79
2023/02/12 02:50:04;;;;;;;28.60;20.47;;;;;;;4.02;87.50;97411.34;5029376;28;20247;-79
2023/02/12 02:52:38;;;;;;;31.57;21.67;;;;;;;4.04;87.40;97408.69;5027258;28;20224;-80
2023/02/12 02:55:08;;;;;;;29.60;20.83;;;;;;;4.00;87.89;97413.13;5029831;28;20179;-79
2023/02/12 02:57:38;;;;;;;30.10;19.93;;;;;;;4.05;87.41;97402.66;5007252;28;20194;-80
2023/02/12 03:00:12;;;;;;;28.97;20.10;;;;;;;4.06;86.85;97402.59;5002196;28;20182;-80
2023/02/12 03:02:39;;;;;;;29.30;20.50;;;;;;;4.04;87.65;97406.97;5025658;28;20709;-80
2023/02/12 03:05:28;;;;;;;29.07;19.40;;;;;;;4.06;87.62;97407.72;5016596;28;20215;-80
2023/02/12 03:07:58;;;;;;;26.90;20.17;;;;;;;4.05;87.38;97413.78;5029208;28;20279;-80
2023/02/12 03:10:26;;;;;;;32.87;21.47;;;;;;;4.00;87.60;97402.84;5011105;28;20183;-80
2023/02/12 03:13:06;;;;;;;32.80;20.10;;;;;;;4.04;87.74;97403.56;5015635;28;20210;-80
2023/02/12 03:15:38;;;;;;;30.47;20.30;;;;;;;4.03;87.48;97400.16;5022681;28;20240;-80
2023/02/12 03:18:08;;;;;;;30.57;20.67;;;;;;;4.02;87.15;97398.47;5024086;28;20298;-80
2023/02/12 03:20:39;;;;;;;31.00;21.73;;;;;;;4.04;87.36;97406.13;5017249;28;20213;-79
2023/02/12 03:23:09;;;;;;;31.67;21.03;;;;;;;4.03;87.26;97407.88;5021226;28;20239;-80
2023/02/12 03:25:55;;;;;;;37.63;23.60;;;;;;;3.99;87.64;97406.31;5029089;28;20273;-79
2023/02/12 03:28:26;;;;;;;34.23;22.70;;;;;;;4.03;87.46;97407.03;5025067;28;20186;-80
2023/02/12 03:31:01;;;;;;;31.47;22.13;;;;;;;4.10;87.14;97414.44;5009057;28;20233;-80
2023/02/12 03:33:38;;;;;;;31.20;22.17;;;;;;;4.08;86.91;97408.53;5017759;28;20213;-80
2023/02/12 03:36:14;;;;;;;37.17;24.20;;;;;;;4.06;87.20;97410.28;5020747;28;20658;-80
2023/02/12 03:39:06;;;;;;;35.60;24.10;;;;;;;4.09;86.99;97414.50;5022466;28;20217;-80
2023/02/12 03:41:36;;;;;;;33.57;23.47;;;;;;;4.07;87.42;97409.44;5020529;28;20187;-80
2023/02/12 03:44:14;;;;;;;38.53;26.30;;;;;;;4.07;87.34;97408.59;4998581;28;20279;-79
2023/02/12 03:46:58;;;;;;;35.93;24.00;;;;;;;4.07;87.11;97409.44;5024165;28;20268;-80
2023/02/12 03:49:29;;;;;;;35.80;24.40;;;;;;;4.09;86.56;97415.34;5021276;28;20602;-80
2023/02/12 03:51:55;;;;;;;41.80;25.80;;;;;;;4.06;87.30;97419.75;5025588;28;20205;-80
2023/02/12 03:54:20;;;;;;;38.20;24.73;;;;;;;4.12;86.79;97414.38;5013948;28;20254;-79
2023/02/12 03:56:51;;;;;;;40.30;25.87;;;;;;;4.09;86.93;97420.47;5023350;28;20190;-79
2023/02/12 03:59:19;;;;;;;36.30;25.40;;;;;;;4.08;87.03;97411.09;5018493;28;20698;-80
2023/02/12 04:01:44;;;;;;;38.63;25.47;;;;;;;4.11;86.86;97418.66;5010629;28;20336;-80
2023/02/12 04:04:10;;;;;;;39.73;27.20;;;;;;;4.07;87.00;97412.00;5014684;28;20269;-80
2023/02/12 04:06:35;;;;;;;37.40;26.13;;;;;;;4.07;87.08;97416.31;5019308;28;20256;-80
2023/02/12 04:09:07;;;;;;;40.87;28.60;;;;;;;4.07;87.50;97412.00;5025384;28;20268;-80
2023/02/12 04:11:51;;;;;;;41.03;27.07;;;;;;;4.13;87.13;97409.16;5025016;28;20182;-80
2023/02/12 04:14:39;;;;;;;42.73;27.23;;;;;;;4.09;87.56;97415.34;5031162;28;20186;-80
2023/02/12 04:17:11;;;;;;;36.97;24.50;;;;;;;4.15;87.21;97409.94;5016527;28;20205;-80
2023/02/12 04:20:12;;;;;;;41.03;25.53;;;;;;;4.12;87.59;97417.78;5012395;28;20629;-80
2023/02/12 04:23:05;;;;;;;42.10;26.73;;;;;;;4.16;87.77;97418.50;5032672;28;20225;-80
2023/02/12 04:25:41;;;;;;;37.83;25.73;;;;;;;4.16;87.71;97427.03;5033989;28;20199;-81
2023/02/12 04:28:12;;;;;;;39.57;27.30;;;;;;;4.13;87.91;97426.31;5030779;28;20320;-80
2023/02/12 04:30:44;;;;;;;40.73;28.80;;;;;;;4.15;88.22;97421.94;5028537;28;20185;-81
2023/02/12 04:33:11;;;;;;;43.47;27.70;;;;;;;4.14;87.97;97426.25;5026036;28;20210;-81
2023/02/12 04:35:45;;;;;;;37.70;26.33;;;;;;;4.14;88.31;97425.41;5020267;28;20197;-81
2023/02/12 04:38:39;;;;;;;41.93;27.60;;;;;;;4.20;88.09;97427.75;5021147;28;20568;-81
2023/02/12 04:41:05;;;;;;;38.50;25.77;;;;;;;4.19;88.31;97433.78;5028815;28;20266;-81
2023/02/12 04:43:34;;;;;;;40.67;27.33;;;;;;;4.18;88.82;97432.13;5009706;28;20691;-81
2023/02/12 04:45:59;;;;;;;39.77;27.20;;;;;;;4.17;88.85;97433.03;5034915;28;20181;-80
2023/02/12 04:48:25;;;;;;;44.57;28.73;;;;;;;4.16;89.16;97431.34;5028800;28;20725;-80
2023/02/12 04:50:50;;;;;;;40.27;27.30;;;;;;;4.19;88.69;97432.06;5027466;28;20186;-80
2023/02/12 04:53:16;;;;;;;42.17;26.90;;;;;;;4.15;89.70;97433.09;5022922;28;20235;-80
2023/02/12 04:55:41;;;;;;;38.60;27.60;;;;;;;4.17;89.62;97427.88;5035291;28;20175;-80
2023/02/12 04:58:06;;;;;;;40.30;26.50;;;;;;;4.24;89.38;97429.28;5013524;28;20212;-80
2023/02/12 05:00:32;;;;;;;42.00;27.90;;;;;;;4.24;89.86;97437.00;5007729;28;20666;-81
2023/02/12 05:02:57;;;;;;;40.77;26.73;;;;;;;4.20;89.94;97427.75;5021765;28;20207;-79
2023/02/12 05:05:24;;;;;;;41.80;26.90;;;;;;;4.21;90.21;97430.25;5025316;28;20187;-78
2023/02/12 05:07:49;;;;;;;42.13;27.43;;;;;;;4.21;90.53;97437.97;5031903;28;20178;-80
2023/02/12 05:10:15;;;;;;;40.33;27.17;;;;;;;4.19;90.64;97426.06;5020572;28;20245;-80
2023/02/12 05:12:40;;;;;;;40.93;26.87;;;;;;;4.25;90.40;97438.69;5018165;28;20712;-81
2023/02/12 05:15:06;;;;;;;40.27;26.47;;;;;;;4.21;91.18;97429.41;5027329;28;20189;-80
2023/02/12 05:17:31;;;;;;;39.97;27.93;;;;;;;4.21;91.05;97437.13;5031109;28;20191;-79
2023/02/12 05:19:56;;;;;;;43.30;26.73;;;;;;;4.20;91.23;97431.16;5013014;28;20190;-79
2023/02/12 05:22:22;;;;;;;40.47;27.30;;;;;;;4.18;91.41;97427.81;5025652;28;20253;-79
2023/02/12 05:24:47;;;;;;;41.17;26.40;;;;;;;4.22;90.99;97431.91;5025404;28;20193;-79
2023/02/12 05:27:12;;;;;;;39.47;25.93;;;;;;;4.22;90.99;97431.91;5015137;28;20220;-79
2023/02/12 05:29:41;;;;;;;36.90;24.57;;;;;;;4.23;91.28;97438.72;5015660;28;20594;-79
2023/02/12 05:32:06;;;;;;;38.40;25.47;;;;;;;4.18;91.14;97435.53;5014936;28;20253;-80
2023/02/12 05:34:31;;;;;;;38.00;25.43;;;;;;;4.24;91.33;97435.28;5021719;28;20558;-80
2023/02/12 05:36:57;;;;;;;42.97;25.83;;;;;;;4.15;91.31;97440.81;5020231;28;20212;-81
2023/02/12 05:39:22;;;;;;;38.50;24.60;;;;;;;4.13;91.74;97432.28;5011967;28;20212;-80
2023/02/12 05:41:51;;;;;;;36.00;24.13;;;;;;;4.17;91.82;97427.88;5013149;28;20202;-80
2023/02/12 05:44:16;;;;;;;34.40;24.43;;;;;;;4.10;91.92;97429.84;5018022;28;20264;-80
2023/02/12 05:46:41;;;;;;;38.67;24.43;;;;;;;4.09;92.49;97430.75;5014568;28;20655;-80
2023/02/12 05:49:08;;;;;;;36.90;24.10;;;;;;;4.11;92.28;97426.38;5023858;28;20184;-80
2023/02/12 05:51:33;;;;;;;42.00;25.67;;;;;;;4.04;93.27;97426.69;5025669;28;20543;-80
2023/02/12 05:54:02;;;;;;;40.47;25.53;;;;;;;4.04;92.98;97427.53;5015837;28;20214;-80
2023/02/12 05:56:30;;;;;;;40.30;25.43;;;;;;;4.05;93.57;97429.19;5008463;28;20198;-80
2023/02/12 05:58:57;;;;;;;42.10;26.10;;;;;;;4.08;93.72;97426.53;5025414;28;20214;-80
2023/02/12 06:01:28;;;;;;;42.97;27.40;;;;;;;4.09;93.73;97432.50;5016226;28;20265;-82
2023/02/12 06:03:53;;;;;;;40.70;25.77;;;;;;;3.97;95.48;97429.50;5030752;28;20701;-79
2023/02/12 06:06:19;;;;;;;45.20;26.10;;;;;;;4.05;95.10;97429.19;5024274;28;20306;-81
2023/02/12 06:08:47;;;;;;;41.50;26.40;;;;;;;4.03;94.80;97425.84;5031963;28;20587;-81
2023/02/12 06:11:13;;;;;;;43.77;27.30;;;;;;;4.08;95.21;97429.09;5015243;28;20610;-79
2023/02/12 06:13:38;;;;;;;43.17;26.47;;;;;;;4.08;95.60;97423.13;5023597;28;20237;-80
2023/02/12 06:16:03;;;;;;;36.77;24.53;;;;;;;4.03;95.47;97425.84;5019960;28;20187;-80
2023/02/12 06:18:29;;;;;;;42.47;27.73;;;;;;;4.06;95.09;97422.31;5015160;28;20206;-81
2023/02/12 06:20:55;;;;;;;42.03;26.97;;;;;;;4.02;96.00;97424.19;5019786;28;20179;-80
2023/02/12 06:23:21;;;;;;;47.27;27.80;;;;;;;3.93;96.82;97424.56;5006300;28;20202;-80
2023/02/12 06:25:48;;;;;;;41.50;27.37;;;;;;;4.07;96.47;97430.00;5016030;28;20212;-79
2023/02/12 06:28:13;;;;;;;42.27;26.93;;;;;;;4.04;96.88;97427.53;5024672;28;20523;-80
2023/02/12 06:30:38;;;;;;;42.63;26.37;;;;;;;4.03;97.04;97433.56;5015340;28;20188;-80
2023/02/12 06:33:03;;;;;;;49.83;28.90;;;;;;;4.03;97.49;97431.00;5007138;28;20255;-79
2023/02/12 06:35:29;;;;;;;44.07;28.73;;;;;;;4.01;97.78;97435.38;5029610;28;20185;-79
2023/02/12 06:37:54;;;;;;;46.30;29.03;;;;;;;4.01;98.61;97435.38;5027686;28;20245;-79
2023/02/12 06:40:19;;;;;;;45.30;29.17;;;;;;;4.01;97.55;97443.09;5006110;28;20679;-79
2023/02/12 06:42:45;;;;;;;52.13;29.93;;;;;;;3.93;98.77;97450.25;5001017;28;20304;-79
2023/02/12 06:45:10;;;;;;;48.90;29.67;;;;;;;4.02;98.38;97449.91;4996603;28;20186;-79
2023/02/12 06:47:35;;;;;;;49.50;30.53;;;;;;;3.97;98.36;97447.50;5018451;28;20663;-80
2023/02/12 06:50:01;;;;;;;54.70;30.13;;;;;;;3.93;99.04;97455.41;5024272;28;20196;-79
2023/02/12 06:52:26;;;;;;;52.33;30.50;;;;;;;3.92;100.00;97457.13;5012906;28;20242;-79
2023/02/12 06:54:52;;;;;;;48.47;29.13;;;;;;;4.01;99.37;97458.50;5001429;28;20238;-80
2023/02/12 06:57:17;;;;;;;49.03;30.83;;;;;;;4.00;99.25;97456.84;4994125;28;20188;-79
2023/02/12 06:59:45;;;;;;;54.73;30.03;;;;;;;4.04;98.90;97455.81;4992776;28;20651;-79
2023/02/12 07:02:10;;;;;;;51.80;30.33;;;;;;;4.04;99.40;97457.53;4994157;28;20252;-80
2023/02/12 07:04:37;;;;;;;53.87;30.83;;;;;;;4.11;99.64;97457.25;4992723;28;20191;-81
2023/02/12 07:07:04;;;;;;;54.83;30.60;;;;;;;4.19;98.77;97457.78;5004712;28;20298;-79
2023/02/12 07:09:30;;;;;;;54.17;31.40;;;;;;;4.20;99.26;97464.59;4995433;28;20183;-79
2023/02/12 07:12:00;;;;;;;54.93;30.17;;;;;;;4.18;98.77;97455.25;5002090;28;20202;-79
2023/02/12 07:14:27;;;;;;;55.17;30.63;;;;;;;4.24;99.33;97466.16;5002421;28;20195;-79
2023/02/12 07:16:53;;;;;;;54.47;29.07;;;;;;;4.29;98.94;97462.53;4997329;28;20188;-79
2023/02/12 07:19:18;;;;;;;46.57;27.97;;;;;;;4.35;98.66;97467.44;4978302;28;20207;-79
2023/02/12 07:21:43;;;;;;;50.07;29.10;;;;;;;4.34;97.90;97466.59;4993685;28;20185;-80
2023/02/12 07:24:13;;;;;;;42.77;26.83;;;;;;;4.47;98.00;97472.91;4993697;28;20650;-79
2023/02/12 07:26:39;;;;;;;48.40;26.93;;;;;;;4.48;97.51;97466.03;5009757;28;20183;-79
2023/02/12 07:29:04;;;;;;;49.10;28.60;;;;;;;4.50;97.51;97471.94;4993914;28;20183;-79
2023/02/12 07:31:30;;;;;;;46.87;28.50;;;;;;;4.52;97.38;97467.59;5003654;28;20183;-79
2023/02/12 07:33:57;;;;;;;50.47;27.80;;;;;;;4.43;97.07;97461.09;5001375;28;20256;-79
2023/02/12 07:36:23;;;;;;;47.80;28.27;;;;;;;4.48;96.65;97463.44;5010914;28;20179;-80
2023/02/12 07:38:49;;;;;;;49.10;28.47;;;;;;;4.56;96.64;97466.53;5005800;28;20211;-79
2023/02/12 07:41:26;;;;;;;45.03;27.37;;;;;;;4.62;96.23;97461.16;4993587;28;20253;-79
2023/02/12 07:43:57;;;;;;;46.13;25.53;;;;;;;4.61;97.00;97469.78;4977395;28;20218;-79
2023/02/12 07:46:29;;;;;;;44.60;24.97;;;;;;;4.66;96.05;97464.41;5009694;28;20187;-79
2023/02/12 07:48:59;;;;;;;47.20;27.03;;;;;;;4.74;95.75;97464.94;4993830;28;20210;-80
2023/02/12 07:51:26;;;;;;;49.03;26.70;;;;;;;4.80;95.81;97465.53;5008927;28;20175;-78
2023/02/12 07:53:51;;;;;;;43.47;25.63;;;;;;;4.77;95.67;97464.78;5009905;28;20732;-80
2023/02/12 07:56:22;;;;;;;44.00;26.37;;;;;;;4.85;95.47;97467.88;4992917;28;20191;-78
2023/02/12 07:58:49;;;;;;;43.13;25.80;;;;;;;4.92;95.41;97463.31;4992958;28;20337;-79
2023/02/12 08:01:18;;;;;;;46.50;26.50;;;;;;;4.95;94.62;97458.88;4977769;28;20188;-79
2023/02/12 08:03:44;;;;;;;40.03;23.83;;;;;;;4.95;94.79;97466.59;4980988;28;20207;-79
2023/02/12 08:06:30;;;;;;;39.20;24.17;;;;;;;5.09;94.81;97461.69;5001938;28;20193;-80
2023/02/12 08:08:57;;;;;;;34.93;21.97;;;;;;;5.14;94.63;97458.06;4992363;28;20198;-79
2023/02/12 08:11:23;;;;;;;35.17;21.47;;;;;;;5.18;94.01;97460.44;4992817;28;20186;-79
2023/02/12 08:13:49;;;;;;;36.20;19.93;;;;;;;5.22;94.28;97451.69;5002730;28;20203;-78
2023/02/12 08:16:17;;;;;;;32.50;19.60;;;;;;;5.19;94.51;97445.81;4997143;28;20180;-79
2023/02/12 08:18:43;;;;;;;34.10;19.90;;;;;;;5.35;93.56;97451.97;5008792;28;20211;-79
2023/02/12 08:21:14;;;;;;;30.87;19.20;;;;;;;5.48;92.75;97447.06;4993399;28;20677;-79
2023/02/12 08:23:39;;;;;;;36.03;19.43;;;;;;;5.22;92.96;97441.38;4991276;28;20284;-79
2023/02/12 08:26:23;;;;;;;32.73;18.53;;;;;;;5.52;92.73;97448.63;4991010;28;20198;-79
2023/02/12 08:28:52;;;;;;;30.47;18.40;;;;;;;5.47;92.91;97445.41;4995770;28;20182;-80
2023/02/12 08:31:20;;;;;;;31.37;18.57;;;;;;;5.54;91.68;97452.78;4990521;28;20212;-79
2023/02/12 08:33:46;;;;;;;28.57;17.60;;;;;;;5.56;92.44;97450.13;4998540;28;20217;-78
2023/02/12 08:36:14;;;;;;;29.67;18.43;;;;;;;5.78;91.44;97453.41;4974839;28;20272;-79
2023/02/12 08:38:40;;;;;;;29.63;18.47;;;;;;;5.78;91.11;97453.41;5002945;28;20205;-78
2023/02/12 08:41:08;;;;;;;30.10;18.47;;;;;;;5.88;90.01;97453.81;4980036;28;20662;-79
2023/02/12 08:43:34;;;;;;;32.40;19.20;;;;;;;5.81;90.79;97458.41;4992705;28;20210;-77
2023/02/12 08:46:26;;;;;;;30.50;19.07;;;;;;;5.87;89.69;97452.97;5001369;28;20198;-81
2023/02/12 08:48:57;;;;;;;34.13;19.87;;;;;;;5.94;88.59;97451.81;4984623;28;20679;-79
2023/02/12 08:51:25;;;;;;;27.67;18.93;;;;;;;5.82;90.45;97456.66;4993106;28;20190;-79
2023/02/12 08:53:53;;;;;;;33.57;19.67;;;;;;;5.88;89.84;97464.94;5006216;28;21260;-79
2023/02/12 08:56:18;;;;;;;32.07;20.57;;;;;;;5.97;90.04;97461.97;4985232;28;20229;-78
2023/02/12 08:58:45;;;;;;;33.17;22.77;;;;;;;5.86;89.81;97469.34;5003045;28;20239;-78
2023/02/12 09:01:15;;;;;;;35.03;23.73;;;;;;;5.74;89.85;97469.91;4979521;28;20184;-79
2023/02/12 09:03:41;;;;;;;39.63;23.47;;;;;;;5.81;89.92;97466.13;4995883;28;20234;-80
2023/02/12 09:06:07;;;;;;;39.13;24.80;;;;;;;5.81;89.24;97479.03;5004067;28;20196;-80
2023/02/12 09:08:33;;;;;;;41.23;26.83;;;;;;;5.87;89.11;97471.03;5020112;28;20179;-80
2023/02/12 09:10:58;;;;;;;39.90;27.23;;;;;;;5.92;89.10;97476.84;5007074;28;20270;-80
2023/02/12 09:13:24;;;;;;;37.83;24.97;;;;;;;5.90;89.15;97476.06;5015484;28;20290;-80
2023/02/12 09:15:49;;;;;;;37.03;24.93;;;;;;;5.93;88.39;97470.78;5004458;28;20219;-80
2023/02/12 09:18:15;;;;;;;32.93;20.83;;;;;;;5.83;88.65;97474.66;5012873;28;20212;-80
2023/02/12 09:20:42;;;;;;;36.27;22.73;;;;;;;5.97;88.11;97477.44;5008378;28;20635;-79
2023/02/12 09:23:10;;;;;;;34.10;21.17;;;;;;;5.89;88.09;97481.25;5013398;28;20203;-79
2023/02/12 09:25:38;;;;;;;33.63;22.37;;;;;;;5.89;88.03;97474.34;5017910;28;20222;-80
2023/02/12 09:28:04;;;;;;;28.40;19.50;;;;;;;5.69;87.88;97480.44;5019321;28;20611;-79
2023/02/12 09:30:29;;;;;;;30.67;20.03;;;;;;;5.90;87.50;97481.22;5014804;28;20191;-81
2023/02/12 09:32:55;;;;;;;28.53;18.30;;;;;;;5.81;88.10;97479.03;5003944;28;20239;-81
2023/02/12 09:35:21;;;;;;;26.53;18.30;;;;;;;5.88;87.57;97483.00;5006355;28;20188;-79
2023/02/12 09:37:46;;;;;;;26.67;18.40;;;;;;;5.78;87.11;97484.34;4998989;28;20991;-78
2023/02/12 09:40:46;;;;;;;26.10;15.87;;;;;;;5.98;87.19;97488.59;5004027;28;20202;-79
2023/02/12 09:43:25;;;;;;;29.23;17.70;;;;;;;6.02;86.73;97489.31;5012464;28;20206;-79
2023/02/12 09:46:03;;;;;;;24.83;14.23;;;;;;;6.06;86.67;97494.22;5011413;28;20198;-78
2023/02/12 09:48:47;;;;;;;24.50;14.93;;;;;;;6.10;86.56;97493.19;4996519;28;20194;-78
2023/02/12 09:51:13;;;;;;;18.13;13.00;;;;;;;6.10;86.46;97482.03;5018327;28;20273;-79
2023/02/12 09:53:42;;;;;;;21.23;12.90;;;;;;;6.14;85.79;97488.72;5002994;28;20788;-80
2023/02/12 09:56:18;;;;;;;17.63;11.83;;;;;;;6.28;85.19;97491.47;5013396;28;20187;-78
2023/02/12 09:58:47;;;;;;;19.83;13.33;;;;;;;6.30;84.87;97487.06;4991870;28;20211;-81
2023/02/12 10:01:15;;;;;;;20.20;13.83;;;;;;;6.43;84.30;97488.13;5002566;28;20183;-80
2023/02/12 10:03:41;;;;;;;23.20;14.03;;;;;;;6.39;83.88;97488.38;5006397;28;20215;-80
2023/02/12 10:06:15;;;;;;;21.47;13.73;;;;;;;6.33;84.55;97489.50;4996452;28;20195;-82
2023/02/12 10:09:22;;;;;;;22.40;14.67;;;;;;;6.49;82.79;97480.09;4991317;28;20800;-81
2023/02/12 10:12:09;;;;;;;21.27;14.43;;;;;;;6.72;82.40;97480.72;5000531;28;20191;-81
2023/02/12 10:14:55;;;;;;;22.13;14.13;;;;;;;6.80;82.06;97483.72;5015403;28;20613;-81
2023/02/12 10:17:26;;;;;;;21.23;15.30;;;;;;;6.77;82.11;97474.41;5000164;28;20188;-82
2023/02/12 10:20:00;;;;;;;20.03;13.93;;;;;;;6.63;81.60;97474.28;5008481;28;20210;-82
2023/02/12 10:22:41;;;;;;;21.73;14.50;;;;;;;6.50;83.06;97476.59;5014290;28;20582;-82
2023/02/12 10:25:15;;;;;;;20.97;14.90;;;;;;;6.75;81.60;97477.97;4998696;28;20195;-82
2023/02/12 10:27:52;;;;;;;24.10;15.90;;;;;;;6.73;81.97;97472.91;5013201;28;20190;-81
2023/02/12 10:30:24;;;;;;;21.60;15.73;;;;;;;6.99;79.90;97475.91;4998810;28;20262;-82
2023/02/12 10:32:58;;;;;;;23.27;15.93;;;;;;;7.07;80.04;97479.75;5016238;28;20330;-81
2023/02/12 10:35:23;;;;;;;25.07;17.33;;;;;;;6.90;80.61;97477.22;5000409;28;20245;-81
2023/02/12 10:37:57;;;;;;;27.27;19.00;;;;;;;7.05;80.40;97473.00;5008457;28;20203;-81
2023/02/12 10:40:43;;;;;;;30.17;19.47;;;;;;;7.12;80.08;97481.25;5002742;28;20223;-81
2023/02/12 10:43:11;;;;;;;29.60;18.67;;;;;;;7.32;78.85;97481.06;5022899;28;20664;-82
2023/02/12 10:45:38;;;;;;;24.13;17.83;;;;;;;7.22;78.79;97478.13;5001160;28;20213;-81
2023/02/12 10:48:22;;;;;;;24.77;16.63;;;;;;;7.20;78.38;97473.94;5001837;28;20190;-81
2023/02/12 10:51:07;;;;;;;22.97;16.07;;;;;;;7.22;78.60;97475.53;5018801;28;20249;-82
2023/02/12 10:53:37;;;;;;;22.13;15.93;;;;;;;7.20;78.29;97471.38;5021198;28;20215;-82
2023/02/12 10:56:12;;;;;;;23.77;15.67;;;;;;;7.13;78.33;97480.34;5013142;28;20271;-81
2023/02/12 10:58:49;;;;;;;20.10;15.80;;;;;;;7.21;77.79;97467.88;5009348;28;20210;-80
2023/02/12 11:01:30;;;;;;;21.93;16.13;;;;;;;7.15;77.77;97465.59;5019283;28;20260;-82
2023/02/12 11:03:58;;;;;;;23.70;16.90;;;;;;;7.13;78.34;97459.69;5015243;28;20207;-81
2023/02/12 11:06:26;;;;;;;19.73;14.90;;;;;;;7.36;77.62;97459.31;5008960;28;20187;-81
2023/02/12 11:08:52;;;;;;;19.20;14.63;;;;;;;7.33;77.14;97457.75;5005382;28;20191;-82
2023/02/12 11:11:26;;;;;;;20.93;14.70;;;;;;;7.38;76.08;97454.91;4989043;28;20188;-82
2023/02/12 11:13:56;;;;;;;20.47;15.00;;;;;;;7.45;76.15;97445.06;5011801;28;20326;-82
2023/02/12 11:16:36;;;;;;;19.60;15.20;;;;;;;7.51;76.15;97455.94;5014401;28;20187;-81
2023/02/12 11:19:06;;;;;;;23.73;17.33;;;;;;;7.49;76.25;97451.72;5000401;28;20218;-80
2023/02/12 11:21:33;;;;;;;22.97;16.00;;;;;;;7.47;76.09;97458.75;4992875;28;20223;-81
2023/02/12 11:24:28;;;;;;;24.40;17.47;;;;;;;7.58;76.17;97461.56;5014158;28;20301;-80
2023/02/12 11:27:27;;;;;;;30.77;20.97;;;;;;;7.23;76.81;97460.88;5002241;28;20198;-81
2023/02/12 11:30:19;;;;;;;25.53;19.93;;;;;;;7.26;77.26;97452.97;4976646;28;20212;-80
2023/02/12 11:32:45;;;;;;;24.20;18.63;;;;;;;7.25;76.64;97453.88;4992774;28;20227;-81
2023/02/12 11:35:25;;;;;;;24.53;19.00;;;;;;;7.29;77.16;97457.97;4982971;28;20191;-81
2023/02/12 11:37:54;;;;;;;25.70;19.33;;;;;;;7.56;75.76;97447.91;4978311;28;20262;-81
2023/02/12 11:40:25;;;;;;;22.57;15.93;;;;;;;7.09;77.75;97454.69;4976881;28;20697;-80